createdAt,value
2017-12-30T00:01:37.799Z,7.10
2017-12-30T00:04:05.422Z,7.70
2017-12-30T00:06:32.731Z,7.23
2017-12-30T00:09:00.081Z,6.90
2017-12-30T00:11:27.467Z,6.73
2017-12-30T00:13:55.186Z,7.53
2017-12-30T00:16:22.814Z,7.40
2017-12-30T00:18:50.218Z,7.80
2017-12-30T00:21:17.573Z,7.63
2017-12-30T00:23:44.882Z,6.73
2017-12-30T00:26:12.225Z,6.50
2017-12-30T00:28:39.580Z,6.70
2017-12-30T00:31:06.946Z,6.70
2017-12-30T00:33:34.259Z,7.03
2017-12-30T00:36:01.749Z,7.73
2017-12-30T00:38:29.154Z,7.30
2017-12-30T00:40:56.819Z,7.43
2017-12-30T00:43:24.105Z,6.67
2017-12-30T00:45:51.811Z,7.60
2017-12-30T00:48:19.562Z,6.80
2017-12-30T00:50:47.262Z,6.43
2017-12-30T00:53:14.615Z,6.53
2017-12-30T00:55:41.999Z,5.90
2017-12-30T00:58:09.460Z,6.50
2017-12-30T01:00:37.221Z,6.57
2017-12-30T01:03:04.944Z,7.03
2017-12-30T01:05:32.577Z,6.60
2017-12-30T01:07:59.905Z,6.67
2017-12-30T01:10:27.790Z,6.40
2017-12-30T01:12:55.138Z,6.23
2017-12-30T01:15:22.582Z,6.87
2017-12-30T01:17:50.254Z,7.23
2017-12-30T01:20:17.886Z,7.13
2017-12-30T01:22:45.221Z,7.10
2017-12-30T01:25:12.565Z,6.13
2017-12-30T01:27:40.358Z,6.73
2017-12-30T01:30:08.348Z,6.47
2017-12-30T01:32:36.153Z,6.97
2017-12-30T01:35:03.950Z,6.37
2017-12-30T01:37:31.656Z,7.00
2017-12-30T01:39:58.961Z,6.37
2017-12-30T01:42:26.324Z,6.47
2017-12-30T01:44:53.669Z,6.70
2017-12-30T01:47:20.990Z,7.10
2017-12-30T01:49:48.621Z,6.63
2017-12-30T01:52:16.430Z,7.17
2017-12-30T01:54:44.063Z,6.70
2017-12-30T01:57:11.419Z,6.63
2017-12-30T01:59:38.734Z,7.07
2017-12-30T02:02:06.054Z,7.33
2017-12-30T02:04:33.964Z,6.40
2017-12-30T02:07:01.415Z,6.60
2017-12-30T02:09:28.761Z,6.40
2017-12-30T02:11:56.074Z,6.27
2017-12-30T02:14:23.733Z,7.10
2017-12-30T02:16:52.185Z,6.60
2017-12-30T02:19:19.853Z,6.60
2017-12-30T02:21:47.640Z,6.60
2017-12-30T02:24:14.997Z,6.90
2017-12-30T02:26:42.650Z,6.50
2017-12-30T02:29:09.951Z,7.00
2017-12-30T02:31:37.358Z,7.10
2017-12-30T02:34:04.679Z,6.77
2017-12-30T02:36:32.401Z,6.57
2017-12-30T02:39:00.195Z,6.50
2017-12-30T02:41:27.514Z,7.00
2017-12-30T02:43:54.878Z,7.00
2017-12-30T02:46:22.509Z,6.57
2017-12-30T02:48:50.289Z,7.10
2017-12-30T02:51:17.922Z,7.27
2017-12-30T02:53:45.278Z,6.53
2017-12-30T02:56:13.044Z,6.67
2017-12-30T02:58:40.701Z,6.47
2017-12-30T03:01:08.410Z,6.97
2017-12-30T03:03:35.732Z,6.50
2017-12-30T03:06:03.033Z,6.73
2017-12-30T03:08:30.374Z,6.93
2017-12-30T03:10:58.061Z,6.67
2017-12-30T03:13:25.371Z,6.40
2017-12-30T03:15:53.059Z,6.90
2017-12-30T03:18:20.426Z,6.70
2017-12-30T03:20:47.750Z,6.50
2017-12-30T03:23:15.149Z,6.60
2017-12-30T03:25:42.479Z,7.03
2017-12-30T03:28:09.822Z,7.33
2017-12-30T03:30:37.170Z,6.90
2017-12-30T03:33:04.903Z,7.67
2017-12-30T03:35:33.094Z,7.10
2017-12-30T03:38:00.739Z,7.03
2017-12-30T03:40:28.093Z,7.27
2017-12-30T03:42:55.446Z,6.83
2017-12-30T03:45:22.754Z,7.43
2017-12-30T03:47:50.115Z,6.87
2017-12-30T03:50:17.426Z,7.07
2017-12-30T03:52:45.098Z,7.20
2017-12-30T03:55:12.762Z,7.70
2017-12-30T03:57:40.485Z,6.77
2017-12-30T04:00:07.846Z,7.40
2017-12-30T04:02:35.158Z,6.27
2017-12-30T04:05:02.470Z,6.87
2017-12-30T04:07:30.690Z,6.40
2017-12-30T04:09:58.002Z,6.93
2017-12-30T04:12:25.777Z,7.30
2017-12-30T04:14:53.434Z,6.93
2017-12-30T04:17:21.119Z,6.80
2017-12-30T04:19:48.446Z,6.60
2017-12-30T04:22:15.794Z,6.57
2017-12-30T04:24:43.474Z,7.20
2017-12-30T04:27:11.246Z,6.70
2017-12-30T04:29:38.597Z,6.27
2017-12-30T04:32:05.901Z,7.33
2017-12-30T04:34:33.605Z,6.80
2017-12-30T04:37:01.373Z,7.00
2017-12-30T04:39:29.001Z,6.83
2017-12-30T04:41:56.341Z,7.30
2017-12-30T04:44:24.018Z,6.90
2017-12-30T04:46:51.369Z,6.90
2017-12-30T04:49:18.709Z,7.50
2017-12-30T04:51:46.129Z,7.20
2017-12-30T04:54:13.474Z,7.67
2017-12-30T04:56:41.108Z,7.10
2017-12-30T04:59:08.441Z,6.63
2017-12-30T05:01:35.762Z,6.80
2017-12-30T05:04:03.122Z,6.40
2017-12-30T05:06:30.425Z,6.90
2017-12-30T05:08:58.134Z,8.07
2017-12-30T05:11:25.838Z,7.27
2017-12-30T05:13:53.149Z,6.97
2017-12-30T05:16:20.512Z,6.50
2017-12-30T05:18:48.218Z,6.83
2017-12-30T05:21:15.528Z,7.30
2017-12-30T05:23:43.373Z,7.13
2017-12-30T05:26:10.985Z,7.03
2017-12-30T05:28:38.690Z,7.07
2017-12-30T05:31:06.326Z,6.57
2017-12-30T05:33:33.637Z,5.67
2017-12-30T05:36:01.570Z,6.40
2017-12-30T05:38:29.425Z,6.87
2017-12-30T05:40:57.367Z,7.33
2017-12-30T05:43:25.139Z,5.80
2017-12-30T05:45:52.449Z,7.47
2017-12-30T05:48:19.771Z,6.80
2017-12-30T05:50:47.118Z,6.23
2017-12-30T05:53:14.990Z,7.13
2017-12-30T05:55:42.834Z,6.97
2017-12-30T05:58:10.826Z,6.47
2017-12-30T06:00:38.562Z,7.00
2017-12-30T06:03:05.913Z,6.83
2017-12-30T06:05:33.716Z,6.50
2017-12-30T06:08:01.366Z,6.67
2017-12-30T06:10:29.006Z,6.23
2017-12-30T06:12:56.354Z,6.67
2017-12-30T06:15:24.086Z,6.93
2017-12-30T06:17:51.681Z,6.30
2017-12-30T06:20:19.418Z,6.37
2017-12-30T06:22:46.854Z,6.67
2017-12-30T06:25:14.171Z,6.70
2017-12-30T06:27:41.857Z,6.80
2017-12-30T06:30:09.507Z,6.33
2017-12-30T06:32:36.874Z,6.40
2017-12-30T06:35:04.318Z,6.30
2017-12-30T06:37:31.963Z,6.67
2017-12-30T06:39:59.306Z,6.50
2017-12-30T06:42:26.665Z,7.03
2017-12-30T06:44:54.090Z,6.50
2017-12-30T06:47:21.495Z,6.57
2017-12-30T06:49:49.186Z,5.93
2017-12-30T06:52:16.851Z,6.47
2017-12-30T06:54:44.173Z,6.80
2017-12-30T06:57:11.917Z,6.50
2017-12-30T06:59:39.230Z,6.53
2017-12-30T07:02:06.611Z,6.70
2017-12-30T07:04:34.318Z,6.77
2017-12-30T07:07:02.016Z,6.13
2017-12-30T07:09:29.358Z,6.47
2017-12-30T07:11:56.675Z,6.67
2017-12-30T07:14:24.389Z,6.60
2017-12-30T07:16:52.081Z,7.63
2017-12-30T07:19:19.743Z,7.47
2017-12-30T07:21:47.450Z,8.70
2017-12-30T07:24:15.130Z,7.03
2017-12-30T07:26:42.490Z,6.80
2017-12-30T07:29:09.933Z,6.80
2017-12-30T07:31:37.307Z,7.30
2017-12-30T07:34:04.606Z,6.40
2017-12-30T07:36:32.125Z,6.90
2017-12-30T07:38:59.855Z,7.27
2017-12-30T07:41:27.504Z,6.40
2017-12-30T07:43:55.202Z,7.30
2017-12-30T07:46:22.525Z,7.33
2017-12-30T07:48:50.145Z,7.17
2017-12-30T07:51:17.489Z,6.60
2017-12-30T07:53:45.241Z,7.30
2017-12-30T07:56:12.979Z,7.10
2017-12-30T07:58:40.586Z,7.10
2017-12-30T08:01:08.270Z,6.77
2017-12-30T08:03:35.621Z,7.03
2017-12-30T08:06:02.931Z,7.67
2017-12-30T08:08:30.270Z,7.80
2017-12-30T08:10:57.577Z,7.63
2017-12-30T08:13:24.921Z,7.33
2017-12-30T08:15:52.279Z,7.10
2017-12-30T08:18:19.986Z,7.73
2017-12-30T08:20:47.629Z,7.97
2017-12-30T08:23:15.026Z,7.00
2017-12-30T08:25:42.344Z,8.27
2017-12-30T08:28:09.697Z,6.63
2017-12-30T08:30:37.074Z,7.20
2017-12-30T08:33:04.385Z,7.37
2017-12-30T08:35:31.681Z,8.10
2017-12-30T08:37:59.028Z,7.37
2017-12-30T08:40:26.642Z,7.90
2017-12-30T08:42:54.425Z,8.57
2017-12-30T08:45:22.106Z,7.63
2017-12-30T08:47:49.414Z,7.80
2017-12-30T08:50:16.787Z,8.10
2017-12-30T08:52:44.121Z,7.73
2017-12-30T08:55:11.518Z,8.03
2017-12-30T08:57:38.870Z,7.50
2017-12-30T09:00:06.501Z,7.90
2017-12-30T09:02:33.902Z,6.80
2017-12-30T09:05:01.633Z,6.80
2017-12-30T09:07:29.026Z,7.10
2017-12-30T09:09:56.353Z,6.70
2017-12-30T09:12:24.023Z,7.13
2017-12-30T09:14:51.703Z,6.93
2017-12-30T09:17:19.050Z,6.77
2017-12-30T09:19:46.711Z,7.47
2017-12-30T09:22:14.112Z,7.60
2017-12-30T09:24:41.830Z,7.10
2017-12-30T09:27:10.292Z,6.60
2017-12-30T09:29:37.642Z,7.13
2017-12-30T09:32:05.088Z,6.93
2017-12-30T09:34:32.405Z,7.10
2017-12-30T09:37:00.143Z,7.80
2017-12-30T09:39:27.782Z,7.33
2017-12-30T09:41:55.423Z,6.87
2017-12-30T09:44:22.789Z,7.33
2017-12-30T09:46:50.101Z,6.63
2017-12-30T09:49:17.841Z,7.37
2017-12-30T09:51:45.198Z,6.77
2017-12-30T09:54:12.588Z,6.43
2017-12-30T09:56:40.305Z,7.07
2017-12-30T09:59:07.942Z,6.50
2017-12-30T10:01:35.298Z,7.13
2017-12-30T10:04:02.974Z,6.43
2017-12-30T10:06:30.610Z,5.87
2017-12-30T10:08:58.026Z,6.60
2017-12-30T10:11:25.601Z,6.17
2017-12-30T10:13:53.376Z,5.67
2017-12-30T10:16:20.986Z,5.80
2017-12-30T10:18:48.616Z,6.30
2017-12-30T10:21:15.918Z,6.00
2017-12-30T10:23:43.287Z,6.43
2017-12-30T10:26:10.984Z,5.83
2017-12-30T10:28:38.299Z,6.40
2017-12-30T10:31:05.650Z,6.03
2017-12-30T10:33:32.993Z,5.50
2017-12-30T10:36:00.297Z,5.60
2017-12-30T10:38:27.654Z,5.67
2017-12-30T10:40:54.966Z,5.53
2017-12-30T10:43:22.665Z,4.93
2017-12-30T10:45:50.389Z,5.10
2017-12-30T10:48:21.115Z,5.97
2017-12-30T10:50:48.527Z,5.80
2017-12-30T10:53:15.874Z,5.93
2017-12-30T10:55:43.174Z,5.23
2017-12-30T10:58:10.713Z,5.83
2017-12-30T11:00:43.937Z,5.20
2017-12-30T11:03:11.277Z,5.40
2017-12-30T11:05:38.779Z,5.30
2017-12-30T11:08:06.513Z,5.47
2017-12-30T11:10:33.822Z,6.03
2017-12-30T11:13:01.179Z,5.10
2017-12-30T11:15:28.583Z,5.27
2017-12-30T11:17:55.881Z,5.27
2017-12-30T11:20:24.120Z,5.80
2017-12-30T11:22:51.438Z,5.40
2017-12-30T11:25:18.794Z,9.50
2017-12-30T11:27:46.130Z,7.07
2017-12-30T11:30:13.806Z,5.30
2017-12-30T11:32:41.204Z,6.10
2017-12-30T11:35:08.514Z,5.90
2017-12-30T11:37:36.187Z,5.67
2017-12-30T11:40:03.796Z,5.53
2017-12-30T11:42:31.534Z,5.47
2017-12-30T11:44:59.662Z,5.50
2017-12-30T11:47:27.211Z,5.50
2017-12-30T11:49:55.382Z,5.70
2017-12-30T11:52:22.693Z,5.03
2017-12-30T11:54:50.014Z,5.80
2017-12-30T11:57:17.379Z,5.80
2017-12-30T11:59:44.682Z,6.50
2017-12-30T12:02:12.095Z,5.90
2017-12-30T12:04:39.466Z,6.20
2017-12-30T12:07:07.159Z,6.30
2017-12-30T12:09:34.660Z,6.67
2017-12-30T12:12:02.059Z,7.00
2017-12-30T12:14:29.373Z,7.13
2017-12-30T12:16:56.763Z,6.67
2017-12-30T12:19:24.443Z,6.70
2017-12-30T12:21:52.110Z,7.43
2017-12-30T12:27:04.626Z,6.40
2017-12-30T12:29:31.958Z,6.27
2017-12-30T12:31:59.274Z,6.63
2017-12-30T12:34:26.652Z,6.80
2017-12-30T12:36:53.962Z,5.57
2017-12-30T12:39:21.292Z,5.50
2017-12-30T12:41:48.634Z,5.80
2017-12-30T12:44:16.402Z,6.20
2017-12-30T12:46:44.054Z,5.47
2017-12-30T12:49:11.685Z,5.47
2017-12-30T12:51:39.321Z,6.20
2017-12-30T12:54:06.683Z,5.90
2017-12-30T12:56:34.074Z,5.90
2017-12-30T12:59:02.335Z,5.83
2017-12-30T13:01:29.686Z,5.60
2017-12-30T13:03:57.316Z,5.73
2017-12-30T13:06:24.700Z,5.40
2017-12-30T13:08:52.464Z,5.43
2017-12-30T23:29:32.974Z,3.10
2017-12-30T23:32:00.308Z,2.50
2017-12-30T23:34:27.662Z,2.70
2017-12-30T23:36:54.986Z,3.20
2017-12-30T23:39:22.670Z,2.60
2017-12-30T23:41:49.992Z,2.77
2017-12-30T23:44:17.451Z,3.20
2017-12-30T23:46:45.237Z,2.70
2017-12-30T23:49:12.862Z,2.33
2017-12-30T23:51:40.250Z,2.40
2017-12-30T23:54:07.629Z,3.37
2017-12-30T23:56:35.361Z,3.43
2017-12-30T23:59:02.986Z,2.63
